Time,TemperatureF,DewpointF,PressureIn,WindDirection,WindDirectionDegrees,WindSpeedMPH,WindSpeedGustMPH,Humidity,HourlyPrecipIn,Conditions,Clouds,dailyrainin,SoftwareType,DateUTC
2013-08-12 00:00:00,58.1,49.9,30.04,NE,51,0.0,0.0,74,0.00,,---,0.00,VWS V13.01,2013-08-12 05:00:00,
2013-08-12 00:05:00,58.3,50.0,30.04,NE,51,0.0,0.0,74,0.00,,---,0.00,VWS V13.01,2013-08-12 05:05:00,
2013-08-12 00:10:00,58.5,50.2,30.04,NE,51,0.0,0.0,74,0.00,,---,0.00,VWS V13.01,2013-08-12 05:10:00,
2013-08-12 00:15:00,58.5,50.2,30.04,NE,51,0.0,0.0,74,0.00,,---,0.00,VWS V13.01,2013-08-12 05:15:00,
2013-08-12 00:20:00,58.3,50.0,30.04,NE,51,0.0,0.0,74,0.00,,---,0.00,VWS V13.01,2013-08-12 05:20:00,
2013-08-12 00:25:00,58.3,50.0,30.04,NE,51,0.0,0.0,74,0.00,,---,0.00,VWS V13.01,2013-08-12 05:25:00,
2013-08-12 00:30:00,58.3,50.0,30.04,NE,51,0.0,0.0,74,0.00,,---,0.00,VWS V13.01,2013-08-12 05:30:00,
2013-08-12 00:36:00,58.3,50.0,30.04,NE,51,0.0,0.0,74,0.00,,---,0.00,VWS V13.01,2013-08-12 05:36:00,
2013-08-12 00:41:00,58.5,50.2,30.04,NE,51,0.0,0.0,74,0.00,,---,0.00,VWS V13.01,2013-08-12 05:41:00,
2013-08-12 00:46:00,58.5,50.2,30.04,NE,51,0.0,0.0,74,0.00,,---,0.00,VWS V13.01,2013-08-12 05:46:00,
2013-08-12 00:51:00,58.5,50.2,30.04,NE,51,0.0,0.0,74,0.00,,---,0.00,VWS V13.01,2013-08-12 05:51:00,
2013-08-12 00:56:00,58.5,50.2,30.04,NE,51,0.0,0.0,74,0.00,,---,0.00,VWS V13.01,2013-08-12 05:56:00,
2013-08-12 01:01:00,58.5,50.2,30.04,NE,51,0.0,0.0,74,0.00,,---,0.00,VWS V13.01,2013-08-12 06:01:00,
2013-08-12 01:06:00,58.5,50.2,30.04,NE,51,0.0,0.0,74,0.00,,---,0.00,VWS V13.01,2013-08-12 06:06:00,
2013-08-12 01:11:00,58.5,50.2,30.04,NE,51,0.0,0.0,74,0.00,,---,0.00,VWS V13.01,2013-08-12 06:11:00,
2013-08-12 01:16:00,58.3,49.7,30.04,NE,51,0.0,0.0,73,0.00,,---,0.00,VWS V13.01,2013-08-12 06:16:00,
2013-08-12 01:21:00,58.1,49.5,30.04,NE,51,0.0,0.0,73,0.00,,---,0.00,VWS V13.01,2013-08-12 06:21:00,
2013-08-12 01:26:00,57.9,49.3,30.04,NE,51,0.0,0.0,73,0.00,,---,0.00,VWS V13.01,2013-08-12 06:26:00,
2013-08-12 01:32:00,57.7,49.2,30.04,NE,51,0.0,0.0,73,0.00,,---,0.00,VWS V13.01,2013-08-12 06:32:00,
2013-08-12 01:37:00,57.4,48.8,30.04,NE,51,0.0,0.0,73,0.00,,---,0.00,VWS V13.01,2013-08-12 06:37:00,
2013-08-12 01:42:00,57.2,48.6,30.04,NE,51,0.0,0.0,73,0.00,,---,0.00,VWS V13.01,2013-08-12 06:42:00,
2013-08-12 01:47:00,56.8,48.3,30.04,NE,51,0.0,0.0,73,0.00,,---,0.00,VWS V13.01,2013-08-12 06:47:00,
2013-08-12 01:52:00,56.8,48.3,30.04,NE,51,0.0,0.0,73,0.00,,---,0.00,VWS V13.01,2013-08-12 06:52:00,
2013-08-12 01:57:00,56.7,48.5,30.04,NE,51,0.0,0.0,74,0.00,,---,0.00,VWS V13.01,2013-08-12 06:57:00,
2013-08-12 02:02:00,56.7,48.5,30.04,NE,51,0.0,0.0,74,0.00,,---,0.00,VWS V13.01,2013-08-12 07:02:00,
2013-08-12 02:07:00,56.7,48.5,30.04,NE,51,0.0,0.0,74,0.00,,---,0.00,VWS V13.01,2013-08-12 07:07:00,
2013-08-12 02:12:00,56.5,48.3,30.01,NE,51,0.0,0.0,74,0.00,,---,0.00,VWS V13.01,2013-08-12 07:12:00,
2013-08-12 02:17:00,56.7,48.5,30.01,NE,51,0.0,0.0,74,0.00,,---,0.00,VWS V13.01,2013-08-12 07:17:00,
2013-08-12 02:22:00,56.7,48.5,30.01,NE,51,0.0,0.0,74,0.00,,---,0.00,VWS V13.01,2013-08-12 07:22:00,
2013-08-12 02:28:00,56.7,48.5,30.01,NE,51,0.0,0.0,74,0.00,,---,0.00,VWS V13.01,2013-08-12 07:28:00,
2013-08-12 02:33:00,56.7,48.5,30.01,NE,51,0.0,0.0,74,0.00,,---,0.00,VWS V13.01,2013-08-12 07:33:00,
2013-08-12 02:38:00,56.7,48.5,30.01,NE,51,0.0,0.0,74,0.00,,---,0.00,VWS V13.01,2013-08-12 07:38:00,
2013-08-12 02:43:00,56.5,48.3,30.01,NE,51,0.0,0.0,74,0.00,,---,0.00,VWS V13.01,2013-08-12 07:43:00,
2013-08-12 02:48:00,56.5,48.3,30.01,NE,51,0.0,0.0,74,0.00,,---,0.00,VWS V13.01,2013-08-12 07:48:00,
2013-08-12 02:53:00,56.5,48.3,30.01,NE,51,0.0,0.0,74,0.00,,---,0.00,VWS V13.01,2013-08-12 07:53:00,
2013-08-12 02:58:00,56.7,48.5,30.01,NE,51,0.0,0.0,74,0.00,,---,0.00,VWS V13.01,2013-08-12 07:58:00,
2013-08-12 03:03:00,56.8,49.0,30.01,NE,51,0.0,0.0,75,0.00,,---,0.00,VWS V13.01,2013-08-12 08:03:00,
2013-08-12 03:08:00,57.2,49.0,30.01,NE,51,0.0,0.0,74,0.00,,---,0.00,VWS V13.01,2013-08-12 08:08:00,
2013-08-12 03:13:00,57.2,48.6,30.01,NE,51,0.0,0.0,73,0.00,,---,0.00,VWS V13.01,2013-08-12 08:13:00,
2013-08-12 03:18:00,57.2,48.6,30.01,NE,51,0.0,0.0,73,0.00,,---,0.00,VWS V13.01,2013-08-12 08:18:00,
2013-08-12 03:23:00,57.0,48.5,30.01,NE,51,0.0,0.0,73,0.00,,---,0.00,VWS V13.01,2013-08-12 08:23:00,
2013-08-12 03:28:00,57.2,48.6,30.01,NE,51,0.0,0.0,73,0.00,,---,0.00,VWS V13.01,2013-08-12 08:28:00,
2013-08-12 03:33:00,57.6,49.0,30.01,NE,51,0.0,0.0,73,0.00,,---,0.00,VWS V13.01,2013-08-12 08:33:00,
2013-08-12 03:38:00,57.6,48.6,30.01,NE,51,0.0,0.0,72,0.00,,---,0.00,VWS V13.01,2013-08-12 08:38:00,
2013-08-12 03:43:00,57.7,48.8,30.01,NE,51,0.0,0.0,72,0.00,,---,0.00,VWS V13.01,2013-08-12 08:43:00,
2013-08-12 03:49:00,57.7,48.4,30.01,NE,51,0.0,0.0,71,0.00,,---,0.00,VWS V13.01,2013-08-12 08:49:00,
2013-08-12 03:54:00,57.7,48.4,30.01,NE,51,0.0,0.0,71,0.00,,---,0.00,VWS V13.01,2013-08-12 08:54:00,
2013-08-12 03:59:00,57.7,48.0,30.01,NE,51,0.0,0.0,70,0.00,,---,0.00,VWS V13.01,2013-08-12 08:59:00,
2013-08-12 04:04:00,57.7,48.0,30.01,NE,51,0.0,0.0,70,0.00,,---,0.00,VWS V13.01,2013-08-12 09:04:00,
2013-08-12 04:09:00,57.7,48.0,30.01,NE,51,0.0,0.0,70,0.00,,---,0.00,VWS V13.01,2013-08-12 09:09:00,
2013-08-12 04:14:00,57.6,47.9,30.01,NE,51,0.0,0.0,70,0.00,,---,0.00,VWS V13.01,2013-08-12 09:14:00,
2013-08-12 04:19:00,57.2,47.1,30.01,NE,51,0.0,0.0,69,0.00,,---,0.00,VWS V13.01,2013-08-12 09:19:00,
2013-08-12 04:24:00,57.0,47.3,30.01,NE,51,0.0,0.0,70,0.00,,---,0.00,VWS V13.01,2013-08-12 09:24:00,
2013-08-12 04:29:00,57.0,47.7,30.01,NE,51,0.0,0.0,71,0.00,,---,0.00,VWS V13.01,2013-08-12 09:29:00,
2013-08-12 04:34:00,57.2,47.9,30.01,NE,51,0.0,0.0,71,0.00,,---,0.00,VWS V13.01,2013-08-12 09:34:00,
2013-08-12 04:39:00,57.4,48.1,30.01,NE,51,0.0,0.0,71,0.00,,---,0.00,VWS V13.01,2013-08-12 09:39:00,
2013-08-12 04:44:00,57.6,48.2,30.01,NE,51,0.0,0.0,71,0.00,,---,0.00,VWS V13.01,2013-08-12 09:44:00,
2013-08-12 04:49:00,57.6,48.6,30.01,NE,51,0.0,0.0,72,0.00,,---,0.00,VWS V13.01,2013-08-12 09:49:00,
2013-08-12 04:54:00,57.6,48.6,30.01,NE,51,0.0,0.0,72,0.00,,---,0.00,VWS V13.01,2013-08-12 09:54:00,
2013-08-12 04:59:00,57.6,48.2,30.01,NE,51,0.0,0.0,71,0.00,,---,0.00,VWS V13.01,2013-08-12 09:59:00,
2013-08-12 05:04:00,57.6,48.2,30.01,NE,51,0.0,0.0,71,0.00,,---,0.00,VWS V13.01,2013-08-12 10:04:00,
2013-08-12 05:09:00,57.4,48.1,30.01,NE,51,0.0,0.0,71,0.00,,---,0.00,VWS V13.01,2013-08-12 10:09:00,
2013-08-12 05:14:00,57.2,48.3,30.01,NE,51,0.0,0.0,72,0.00,,---,0.00,VWS V13.01,2013-08-12 10:14:00,
2013-08-12 05:19:00,57.2,48.3,30.01,NE,51,0.0,0.0,72,0.00,,---,0.00,VWS V13.01,2013-08-12 10:19:00,
2013-08-12 05:25:00,57.2,48.3,30.01,NE,51,0.0,0.0,72,0.00,,---,0.00,VWS V13.01,2013-08-12 10:25:00,
2013-08-12 05:30:00,57.2,48.6,30.01,NE,51,0.0,0.0,73,0.00,,---,0.00,VWS V13.01,2013-08-12 10:30:00,
2013-08-12 05:35:00,57.2,48.6,30.01,NE,51,0.0,0.0,73,0.00,,---,0.00,VWS V13.01,2013-08-12 10:35:00,
2013-08-12 05:40:00,57.2,48.6,30.01,NE,51,0.0,0.0,73,0.00,,---,0.00,VWS V13.01,2013-08-12 10:40:00,
2013-08-12 05:45:00,57.4,48.8,30.01,NE,51,0.0,0.0,73,0.00,,---,0.00,VWS V13.01,2013-08-12 10:45:00,
2013-08-12 05:50:00,57.6,49.0,30.01,NE,51,0.0,0.0,73,0.00,,---,0.00,VWS V13.01,2013-08-12 10:50:00,
2013-08-12 05:55:00,57.6,49.0,30.01,NE,51,0.0,0.0,73,0.00,,---,0.00,VWS V13.01,2013-08-12 10:55:00,
2013-08-12 06:00:00,57.7,48.8,30.01,NE,51,0.0,0.0,72,0.00,,---,0.00,VWS V13.01,2013-08-12 11:00:00,
2013-08-12 06:05:00,57.7,48.8,30.01,NE,52,0.0,0.0,72,0.00,,---,0.00,VWS V13.01,2013-08-12 11:05:00,
2013-08-12 06:11:00,57.6,48.2,30.01,NE,51,0.0,0.0,71,0.00,,---,0.00,VWS V13.01,2013-08-12 11:11:00,
2013-08-12 06:16:00,57.6,48.2,30.01,NE,51,0.0,0.0,71,0.00,,---,0.00,VWS V13.01,2013-08-12 11:16:00,
2013-08-12 06:21:00,57.4,48.1,30.01,NE,51,0.0,0.0,71,0.00,,---,0.00,VWS V13.01,2013-08-12 11:21:00,
2013-08-12 06:26:00,57.2,47.9,30.01,NE,51,0.0,0.0,71,0.00,,---,0.00,VWS V13.01,2013-08-12 11:26:00,
2013-08-12 06:31:00,57.2,47.9,30.01,NE,51,0.0,0.0,71,0.00,,---,0.00,VWS V13.01,2013-08-12 11:31:00,
2013-08-12 06:36:00,57.0,47.7,30.01,NE,51,0.0,0.0,71,0.00,,---,0.00,VWS V13.01,2013-08-12 11:36:00,
2013-08-12 06:41:00,56.8,47.5,30.01,NE,51,0.0,0.0,71,0.00,,---,0.00,VWS V13.01,2013-08-12 11:41:00,
2013-08-12 06:46:00,56.8,47.5,30.01,NE,51,0.0,0.0,71,0.00,,---,0.00,VWS V13.01,2013-08-12 11:46:00,
2013-08-12 06:51:00,56.8,47.9,30.01,NE,51,0.0,0.0,72,0.00,,---,0.00,VWS V13.01,2013-08-12 11:51:00,
2013-08-12 06:56:00,57.0,48.1,30.01,NE,51,0.0,0.0,72,0.00,,---,0.00,VWS V13.01,2013-08-12 11:56:00,
2013-08-12 07:01:00,57.6,48.6,30.01,NE,51,0.0,0.0,72,0.00,,---,0.00,VWS V13.01,2013-08-12 12:01:00,
2013-08-12 07:06:00,57.9,49.3,30.01,NE,51,0.0,0.0,73,0.00,,---,0.00,VWS V13.01,2013-08-12 12:06:00,
2013-08-12 07:12:00,58.3,49.7,30.01,NE,51,0.0,0.0,73,0.00,,---,0.00,VWS V13.01,2013-08-12 12:12:00,
2013-08-12 07:17:00,58.5,49.8,30.01,NE,51,0.0,0.0,73,0.00,,---,0.00,VWS V13.01,2013-08-12 12:17:00,
2013-08-12 07:22:00,58.6,50.0,30.01,NE,51,0.0,0.0,73,0.00,,---,0.00,VWS V13.01,2013-08-12 12:22:00,
2013-08-12 07:27:00,59.0,50.0,30.01,NE,51,0.0,0.0,72,0.00,,---,0.00,VWS V13.01,2013-08-12 12:27:00,
2013-08-12 07:32:00,59.4,50.3,30.01,NE,51,0.0,0.0,72,0.00,,---,0.00,VWS V13.01,2013-08-12 12:32:00,
2013-08-12 07:37:00,59.5,50.5,30.01,WSW,256,0.0,0.0,72,0.00,,---,0.00,VWS V13.01,2013-08-12 12:37:00,
2013-08-12 07:42:00,60.1,50.7,30.01,WSW,256,0.0,0.0,71,0.00,,---,0.00,VWS V13.01,2013-08-12 12:42:00,
2013-08-12 07:47:00,60.4,50.6,30.01,WSW,256,0.0,0.0,70,0.00,,---,0.00,VWS V13.01,2013-08-12 12:47:00,
2013-08-12 07:52:00,60.8,50.2,30.01,WSW,256,0.0,2.7,68,0.00,,---,0.00,VWS V13.01,2013-08-12 12:52:00,
2013-08-12 07:57:00,61.2,49.7,30.01,WSW,256,0.0,0.0,66,0.00,,---,0.00,VWS V13.01,2013-08-12 12:57:00,
2013-08-12 08:02:00,61.5,49.2,30.01,WSW,256,0.0,0.0,64,0.00,,---,0.00,VWS V13.01,2013-08-12 13:02:00,
2013-08-12 08:07:00,61.9,48.7,30.01,NW,325,0.0,0.0,62,0.00,,---,0.00,VWS V13.01,2013-08-12 13:07:00,
2013-08-12 08:12:00,62.2,48.2,30.01,WNW,290,3.1,3.1,60,0.00,,---,0.00,VWS V13.01,2013-08-12 13:12:00,
2013-08-12 08:17:00,62.4,48.4,30.01,WNW,290,0.0,0.0,60,0.00,,---,0.00,VWS V13.01,2013-08-12 13:17:00,
2013-08-12 08:22:00,62.6,47.6,30.01,NW,315,2.7,3.1,58,0.00,,---,0.00,VWS V13.01,2013-08-12 13:22:00,
2013-08-12 08:27:00,62.8,47.3,30.01,WNW,284,0.0,0.0,57,0.00,,---,0.00,VWS V13.01,2013-08-12 13:27:00,
2013-08-12 08:32:00,63.0,47.0,30.01,WNW,284,0.0,0.0,56,0.00,,---,0.00,VWS V13.01,2013-08-12 13:32:00,
2013-08-12 08:37:00,63.3,46.4,30.01,WNW,284,0.0,0.0,54,0.00,,---,0.00,VWS V13.01,2013-08-12 13:37:00,
2013-08-12 08:42:00,63.5,46.6,30.01,WNW,284,0.0,0.0,54,0.00,,---,0.00,VWS V13.01,2013-08-12 13:42:00,
2013-08-12 08:47:00,63.9,46.4,30.01,WNW,283,0.0,2.7,53,0.00,,---,0.00,VWS V13.01,2013-08-12 13:47:00,
2013-08-12 08:52:00,64.2,46.2,30.01,West,259,4.0,4.0,52,0.00,,---,0.00,VWS V13.01,2013-08-12 13:52:00,
2013-08-12 08:57:00,64.4,45.9,30.01,WSW,252,0.0,2.7,51,0.00,,---,0.00,VWS V13.01,2013-08-12 13:57:00,
2013-08-12 09:02:00,64.4,45.4,30.01,WNW,284,0.0,0.0,50,0.00,,---,0.00,VWS V13.01,2013-08-12 14:02:00,
2013-08-12 09:07:00,64.6,45.5,30.01,SW,217,5.6,5.6,50,0.00,,---,0.00,VWS V13.01,2013-08-12 14:07:00,
2013-08-12 09:12:00,64.8,45.2,30.01,NNE,14,0.0,5.1,49,0.00,,---,0.00,VWS V13.01,2013-08-12 14:12:00,
2013-08-12 09:17:00,65.1,45.5,30.01,WSW,254,0.0,0.0,49,0.00,,---,0.00,VWS V13.01,2013-08-12 14:17:00,
2013-08-12 09:22:00,65.3,45.1,30.01,ENE,69,0.0,3.1,48,0.00,,---,0.00,VWS V13.01,2013-08-12 14:22:00,
2013-08-12 09:27:00,65.7,45.5,30.01,WNW,300,0.0,0.0,48,0.00,,---,0.00,VWS V13.01,2013-08-12 14:27:00,
2013-08-12 09:32:00,65.8,45.1,30.01,WSW,248,3.6,4.0,47,0.00,,---,0.00,VWS V13.01,2013-08-12 14:32:00,
2013-08-12 09:37:00,66.0,44.7,30.01,East,93,2.7,4.7,46,0.00,,---,0.00,VWS V13.01,2013-08-12 14:37:00,
2013-08-12 09:42:00,66.2,44.2,30.01,NNE,18,0.0,4.0,45,0.00,,---,0.00,VWS V13.01,2013-08-12 14:42:00,
2013-08-12 09:47:00,66.4,44.4,30.01,SW,236,3.1,3.1,45,0.00,,---,0.00,VWS V13.01,2013-08-12 14:47:00,
2013-08-12 09:52:00,66.6,45.2,30.01,WNW,288,0.0,0.0,46,0.00,,---,0.00,VWS V13.01,2013-08-12 14:52:00,
2013-08-12 09:57:00,66.7,44.8,30.01,West,274,4.5,4.5,45,0.00,,---,0.00,VWS V13.01,2013-08-12 14:57:00,
2013-08-12 10:02:00,66.9,44.3,30.01,NNW,331,0.0,0.0,44,0.00,,---,0.00,VWS V13.01,2013-08-12 15:02:00,
2013-08-12 10:07:00,67.1,44.5,30.01,NE,37,4.0,4.0,44,0.00,,---,0.00,VWS V13.01,2013-08-12 15:07:00,
2013-08-12 10:12:00,67.3,44.7,30.01,SW,219,0.0,0.0,44,0.00,,---,0.00,VWS V13.01,2013-08-12 15:12:00,
2013-08-12 10:17:00,67.5,44.2,30.01,WSW,253,4.7,4.7,43,0.00,,---,0.00,VWS V13.01,2013-08-12 15:17:00,
2013-08-12 10:23:00,67.6,43.1,30.01,WNW,290,0.0,3.1,41,0.00,,---,0.00,VWS V13.01,2013-08-12 15:23:00,
2013-08-12 10:28:00,67.6,43.8,30.01,North,357,4.0,4.0,42,0.00,,---,0.00,VWS V13.01,2013-08-12 15:28:00,
2013-08-12 10:33:00,67.8,43.9,30.01,North,357,0.0,0.0,42,0.00,,---,0.00,VWS V13.01,2013-08-12 15:33:00,
2013-08-12 10:38:00,68.0,44.1,30.01,NW,320,0.0,4.0,42,0.00,,---,0.00,VWS V13.01,2013-08-12 15:38:00,
2013-08-12 10:43:00,68.2,43.6,30.01,NW,323,3.6,3.6,41,0.00,,---,0.00,VWS V13.01,2013-08-12 15:43:00,
2013-08-12 10:48:00,68.4,43.8,30.01,West,265,0.0,0.0,41,0.00,,---,0.00,VWS V13.01,2013-08-12 15:48:00,
2013-08-12 10:53:00,68.7,44.7,30.01,NW,313,4.0,4.0,42,0.00,,---,0.00,VWS V13.01,2013-08-12 15:53:00,
2013-08-12 10:58:00,68.9,42.3,30.01,WNW,295,3.6,4.0,38,0.00,,---,0.00,VWS V13.01,2013-08-12 15:58:00,
2013-08-12 11:03:00,69.1,43.1,30.01,West,269,0.0,3.1,39,0.00,,---,0.00,VWS V13.01,2013-08-12 16:03:00,
2013-08-12 11:08:00,69.3,43.3,30.01,West,281,3.1,4.0,39,0.00,,---,0.00,VWS V13.01,2013-08-12 16:08:00,
2013-08-12 11:13:00,69.3,42.6,30.01,NW,322,4.7,4.7,38,0.00,,---,0.00,VWS V13.01,2013-08-12 16:13:00,
2013-08-12 11:18:00,69.4,42.1,30.01,NNE,13,0.0,7.8,37,0.00,,---,0.00,VWS V13.01,2013-08-12 16:18:00,
2013-08-12 11:23:00,69.4,42.1,30.01,West,263,4.0,4.5,37,0.00,,---,0.00,VWS V13.01,2013-08-12 16:23:00,
2013-08-12 11:29:00,69.4,42.1,30.01,WNW,292,4.5,5.6,37,0.00,,---,0.00,VWS V13.01,2013-08-12 16:29:00,
2013-08-12 11:34:00,69.6,42.9,30.01,West,279,3.1,3.6,38,0.00,,---,0.00,VWS V13.01,2013-08-12 16:34:00,
2013-08-12 11:39:00,69.8,41.7,30.01,NNE,13,0.0,3.1,36,0.00,,---,0.00,VWS V13.01,2013-08-12 16:39:00,
2013-08-12 11:44:00,70.0,42.5,30.01,WSW,243,5.6,5.6,37,0.00,,---,0.00,VWS V13.01,2013-08-12 16:44:00,
2013-08-12 11:49:00,70.2,42.0,30.01,SSE,166,3.6,3.6,36,0.00,,---,0.00,VWS V13.01,2013-08-12 16:49:00,
2013-08-12 11:54:00,70.3,42.9,30.01,WNW,303,0.0,3.6,37,0.00,,---,0.00,VWS V13.01,2013-08-12 16:54:00,
2013-08-12 11:59:00,70.7,42.5,30.01,NW,306,0.0,3.1,36,0.00,,---,0.00,VWS V13.01,2013-08-12 16:59:00,
2013-08-12 12:04:00,70.9,41.9,30.01,NW,304,5.6,5.6,35,0.00,,---,0.00,VWS V13.01,2013-08-12 17:04:00,
2013-08-12 12:09:00,70.9,41.1,30.01,NNE,22,5.6,5.6,34,0.00,,---,0.00,VWS V13.01,2013-08-12 17:09:00,
2013-08-12 12:14:00,70.9,41.1,30.01,NNE,27,2.7,3.6,34,0.00,,---,0.00,VWS V13.01,2013-08-12 17:14:00,
2013-08-12 12:19:00,71.1,41.3,30.01,NNE,21,3.6,4.5,34,0.00,,---,0.00,VWS V13.01,2013-08-12 17:19:00,
2013-08-12 12:24:00,71.1,41.3,30.01,NE,41,2.7,4.0,34,0.00,,---,0.00,VWS V13.01,2013-08-12 17:24:00,
2013-08-12 12:29:00,71.1,41.3,30.01,North,3,3.1,3.6,34,0.00,,---,0.00,VWS V13.01,2013-08-12 17:29:00,
2013-08-12 12:35:00,71.2,40.7,30.01,North,357,4.0,4.7,33,0.00,,---,0.00,VWS V13.01,2013-08-12 17:35:00,
2013-08-12 12:40:00,71.2,40.7,30.01,North,349,4.0,4.7,33,0.00,,---,0.00,VWS V13.01,2013-08-12 17:40:00,
2013-08-12 12:45:00,71.2,40.7,30.01,NE,49,4.5,4.7,33,0.00,,---,0.00,VWS V13.01,2013-08-12 17:45:00,
2013-08-12 12:50:00,71.1,41.3,30.01,ENE,64,3.1,4.7,34,0.00,,---,0.00,VWS V13.01,2013-08-12 17:50:00,
2013-08-12 12:55:00,71.4,41.6,30.01,NNE,13,4.7,4.7,34,0.00,,---,0.00,VWS V13.01,2013-08-12 17:55:00,
2013-08-12 13:00:00,71.4,41.6,30.01,North,7,3.6,4.7,34,0.00,,---,0.00,VWS V13.01,2013-08-12 18:00:00,
2013-08-12 13:05:00,71.6,41.0,30.01,North,2,3.6,4.0,33,0.00,,---,0.00,VWS V13.01,2013-08-12 18:05:00,
2013-08-12 13:10:00,71.8,41.9,30.01,NE,48,0.0,0.0,34,0.00,,---,0.00,VWS V13.01,2013-08-12 18:10:00,
2013-08-12 13:16:00,71.8,41.2,30.01,ENE,63,3.6,3.6,33,0.00,,---,0.00,VWS V13.01,2013-08-12 18:16:00,
2013-08-12 13:21:00,71.6,40.2,30.01,NE,34,4.7,5.1,32,0.00,,---,0.00,VWS V13.01,2013-08-12 18:21:00,
2013-08-12 13:26:00,71.2,40.7,30.01,NNE,23,0.0,3.1,33,0.00,,---,0.00,VWS V13.01,2013-08-12 18:26:00,
2013-08-12 13:31:00,71.2,40.7,30.01,NW,324,2.7,2.7,33,0.00,,---,0.00,VWS V13.01,2013-08-12 18:31:00,
2013-08-12 13:36:00,71.4,40.8,30.01,NNW,331,4.5,4.5,33,0.00,,---,0.00,VWS V13.01,2013-08-12 18:36:00,
2013-08-12 13:41:00,71.8,40.4,30.01,NNE,19,3.1,4.0,32,0.00,,---,0.00,VWS V13.01,2013-08-12 18:41:00,
2013-08-12 13:47:00,72.0,41.3,30.01,NNE,30,4.5,4.5,33,0.00,,---,0.00,VWS V13.01,2013-08-12 18:47:00,
2013-08-12 13:52:00,71.6,41.0,30.01,NNE,30,4.7,4.7,33,0.00,,---,0.00,VWS V13.01,2013-08-12 18:52:00,
2013-08-12 13:57:00,71.1,42.0,30.01,North,3,2.7,3.6,35,0.00,,---,0.00,VWS V13.01,2013-08-12 18:57:00,
2013-08-12 14:02:00,70.5,41.6,30.01,NE,38,4.5,5.6,35,0.00,,---,0.00,VWS V13.01,2013-08-12 19:02:00,
2013-08-12 14:07:00,69.8,42.4,30.01,East,87,4.7,4.7,37,0.00,,---,0.00,VWS V13.01,2013-08-12 19:07:00,
2013-08-12 14:12:00,68.0,42.1,30.01,ENE,77,4.0,4.0,39,0.00,,---,0.00,VWS V13.01,2013-08-12 19:12:00,
2013-08-12 14:17:00,66.0,43.5,30.04,ENE,64,4.7,4.7,44,0.00,,---,0.00,VWS V13.01,2013-08-12 19:17:00,
2013-08-12 14:22:00,64.8,43.5,30.04,SE,133,4.0,4.5,46,0.00,,---,0.00,VWS V13.01,2013-08-12 19:22:00,
2013-08-12 14:27:00,64.4,44.3,30.04,ESE,112,4.5,4.5,48,0.00,,---,0.00,VWS V13.01,2013-08-12 19:27:00,
2013-08-12 14:32:00,63.7,43.6,30.04,NE,51,4.0,4.5,48,0.00,,---,0.00,VWS V13.01,2013-08-12 19:32:00,
2013-08-12 14:37:00,63.0,44.0,30.04,ENE,76,3.1,6.0,50,0.00,,---,0.00,VWS V13.01,2013-08-12 19:37:00,
2013-08-12 14:43:00,61.9,43.1,30.04,ENE,62,0.0,2.7,50,0.00,,---,0.00,VWS V13.01,2013-08-12 19:43:00,
2013-08-12 14:48:00,60.6,43.4,30.04,ENE,71,2.7,4.0,53,0.00,,---,0.00,VWS V13.01,2013-08-12 19:48:00,
2013-08-12 14:53:00,59.5,45.2,30.04,East,99,0.0,2.7,59,0.00,,---,0.00,VWS V13.01,2013-08-12 19:53:00,
2013-08-12 14:58:00,58.8,45.4,30.07,ENE,75,0.0,0.0,61,0.00,,---,0.00,VWS V13.01,2013-08-12 19:58:00,
2013-08-12 15:03:00,58.5,45.9,30.07,East,85,4.0,4.0,63,0.00,,---,0.00,VWS V13.01,2013-08-12 20:03:00,
2013-08-12 15:08:00,58.1,46.0,30.07,ENE,71,0.0,2.7,64,0.00,,---,0.00,VWS V13.01,2013-08-12 20:08:00,
2013-08-12 15:13:00,57.7,46.1,30.07,East,93,3.1,3.1,65,0.00,,---,0.00,VWS V13.01,2013-08-12 20:13:00,
2013-08-12 15:18:00,57.9,47.0,30.07,ENE,75,3.6,3.6,67,0.00,,---,0.00,VWS V13.01,2013-08-12 20:18:00,
2013-08-12 15:23:00,58.1,48.0,30.07,ESE,114,0.0,0.0,69,0.00,,---,0.00,VWS V13.01,2013-08-12 20:23:00,
2013-08-12 15:28:00,58.6,49.3,30.07,ENE,76,4.5,4.5,71,0.00,,---,0.00,VWS V13.01,2013-08-12 20:28:00,
2013-08-12 15:33:00,58.6,47.7,30.07,ENE,62,0.0,0.0,67,0.00,,---,0.00,VWS V13.01,2013-08-12 20:33:00,
2013-08-12 15:38:00,59.4,47.2,30.07,SW,223,0.0,3.1,64,0.00,,---,0.00,VWS V13.01,2013-08-12 20:38:00,
2013-08-12 15:43:00,59.9,47.3,30.07,NE,48,4.5,4.5,63,0.00,,---,0.00,VWS V13.01,2013-08-12 20:43:00,
2013-08-12 15:49:00,60.3,45.4,30.07,ENE,58,4.5,4.5,58,0.00,,---,0.00,VWS V13.01,2013-08-12 20:49:00,
2013-08-12 15:54:00,60.4,43.7,30.07,NE,41,4.5,4.7,54,0.00,,---,0.00,VWS V13.01,2013-08-12 20:54:00,
2013-08-12 15:59:00,60.6,42.9,30.07,ESE,103,3.6,4.0,52,0.00,,---,0.00,VWS V13.01,2013-08-12 20:59:00,
2013-08-12 16:04:00,61.0,43.8,30.07,ENE,69,2.7,3.1,53,0.00,,---,0.00,VWS V13.01,2013-08-12 21:04:00,
2013-08-12 16:09:00,60.8,42.6,30.07,ENE,72,3.6,4.0,51,0.00,,---,0.00,VWS V13.01,2013-08-12 21:09:00,
2013-08-12 16:14:00,60.4,42.2,30.07,East,91,0.0,5.1,51,0.00,,---,0.00,VWS V13.01,2013-08-12 21:14:00,
2013-08-12 16:19:00,60.1,41.9,30.07,NE,46,0.0,4.0,51,0.00,,---,0.00,VWS V13.01,2013-08-12 21:19:00,
2013-08-12 16:24:00,59.9,41.8,30.07,NNE,16,3.6,4.0,51,0.00,,---,0.00,VWS V13.01,2013-08-12 21:24:00,
2013-08-12 16:29:00,59.9,39.6,30.07,ENE,59,0.0,2.7,47,0.00,,---,0.00,VWS V13.01,2013-08-12 21:29:00,
2013-08-12 16:34:00,59.7,38.9,30.07,ENE,70,0.0,4.5,46,0.00,,---,0.00,VWS V13.01,2013-08-12 21:34:00,
2013-08-12 16:40:00,59.7,38.4,30.07,ESE,110,4.0,4.5,45,0.00,,---,0.00,VWS V13.01,2013-08-12 21:40:00,
2013-08-12 16:45:00,59.5,38.8,30.07,NE,54,4.0,4.5,46,0.00,,---,0.00,VWS V13.01,2013-08-12 21:45:00,
2013-08-12 16:50:00,59.5,38.8,30.07,ESE,103,4.0,4.0,46,0.00,,---,0.00,VWS V13.01,2013-08-12 21:50:00,
2013-08-12 16:55:00,59.5,38.8,30.07,ESE,123,3.6,3.6,46,0.00,,---,0.00,VWS V13.01,2013-08-12 21:55:00,
2013-08-12 17:00:00,59.4,39.2,30.07,SSE,162,0.0,4.5,47,0.00,,---,0.00,VWS V13.01,2013-08-12 22:00:00,
2013-08-12 17:05:00,59.4,39.7,30.07,NNE,28,4.0,4.0,48,0.00,,---,0.00,VWS V13.01,2013-08-12 22:05:00,
2013-08-12 17:10:00,59.4,39.2,30.07,ESE,105,0.0,4.0,47,0.00,,---,0.00,VWS V13.01,2013-08-12 22:10:00,
2013-08-12 17:15:00,59.4,39.2,30.07,SE,132,0.0,3.1,47,0.00,,---,0.00,VWS V13.01,2013-08-12 22:15:00,
2013-08-12 17:20:00,59.2,39.0,30.07,SE,124,0.0,0.0,47,0.00,,---,0.00,VWS V13.01,2013-08-12 22:20:00,
2013-08-12 17:25:00,59.4,39.2,30.07,NNE,25,0.0,5.1,47,0.00,,---,0.00,VWS V13.01,2013-08-12 22:25:00,
2013-08-12 17:30:00,59.2,38.4,30.07,NNE,30,0.0,0.0,46,0.00,,---,0.00,VWS V13.01,2013-08-12 22:30:00,
2013-08-12 17:35:00,58.8,37.5,30.07,NNE,22,0.0,0.0,45,0.00,,---,0.00,VWS V13.01,2013-08-12 22:35:00,
2013-08-12 17:40:00,58.5,37.2,30.07,East,88,0.0,0.0,45,0.00,,---,0.00,VWS V13.01,2013-08-12 22:40:00,
2013-08-12 17:45:00,58.5,37.8,30.07,NE,49,4.0,4.0,46,0.00,,---,0.00,VWS V13.01,2013-08-12 22:45:00,
2013-08-12 17:50:00,58.5,37.8,30.07,East,86,0.0,0.0,46,0.00,,---,0.00,VWS V13.01,2013-08-12 22:50:00,
2013-08-12 17:55:00,58.6,37.9,30.07,NE,54,0.0,0.0,46,0.00,,---,0.00,VWS V13.01,2013-08-12 22:55:00,
2013-08-12 18:00:00,58.6,37.9,30.07,NE,34,0.0,0.0,46,0.00,,---,0.00,VWS V13.01,2013-08-12 23:00:00,
2013-08-12 18:06:00,58.6,37.4,30.07,East,79,0.0,0.0,45,0.00,,---,0.00,VWS V13.01,2013-08-12 23:06:00,
2013-08-12 18:11:00,58.6,37.4,30.07,ENE,62,0.0,0.0,45,0.00,,---,0.00,VWS V13.01,2013-08-12 23:11:00,
2013-08-12 18:16:00,58.6,37.9,30.07,NNE,30,0.0,0.0,46,0.00,,---,0.00,VWS V13.01,2013-08-12 23:16:00,
2013-08-12 18:21:00,58.6,37.9,30.07,ENE,75,0.0,0.0,46,0.00,,---,0.00,VWS V13.01,2013-08-12 23:21:00,
2013-08-12 18:26:00,58.6,37.9,30.07,NNE,31,0.0,0.0,46,0.00,,---,0.00,VWS V13.01,2013-08-12 23:26:00,
2013-08-12 18:31:00,58.6,37.9,30.07,NNE,31,0.0,0.0,46,0.00,,---,0.00,VWS V13.01,2013-08-12 23:31:00,
2013-08-12 18:36:00,58.6,37.9,30.07,NNE,31,0.0,0.0,46,0.00,,---,0.00,VWS V13.01,2013-08-12 23:36:00,
2013-08-12 18:41:00,58.6,37.9,30.07,NNE,31,0.0,0.0,46,0.00,,---,0.00,VWS V13.01,2013-08-12 23:41:00,
2013-08-12 18:46:00,58.6,38.5,30.07,NNE,31,0.0,0.0,47,0.00,,---,0.00,VWS V13.01,2013-08-12 23:46:00,
2013-08-12 18:51:00,58.5,37.8,30.07,NNE,31,0.0,0.0,46,0.00,,---,0.00,VWS V13.01,2013-08-12 23:51:00,
2013-08-12 18:56:00,58.5,38.3,30.07,NNE,31,0.0,0.0,47,0.00,,---,0.00,VWS V13.01,2013-08-12 23:56:00,
2013-08-12 19:01:00,58.5,38.3,30.07,NNE,31,0.0,0.0,47,0.00,,---,0.00,VWS V13.01,2013-08-13 00:01:00,
2013-08-12 19:07:00,58.3,38.2,30.07,NNE,31,0.0,0.0,47,0.00,,---,0.00,VWS V13.01,2013-08-13 00:07:00,
2013-08-12 19:12:00,58.1,38.0,30.07,NNE,31,0.0,0.0,47,0.00,,---,0.00,VWS V13.01,2013-08-13 00:12:00,
2013-08-12 19:17:00,58.1,38.5,30.07,SE,145,0.0,0.0,48,0.00,,---,0.00,VWS V13.01,2013-08-13 00:17:00,
2013-08-12 19:22:00,57.9,38.4,30.07,NNE,16,0.0,0.0,48,0.00,,---,0.00,VWS V13.01,2013-08-13 00:22:00,
2013-08-12 19:27:00,57.9,38.9,30.07,NNE,16,0.0,0.0,49,0.00,,---,0.00,VWS V13.01,2013-08-13 00:27:00,
2013-08-12 19:32:00,57.7,38.7,30.07,NNE,16,0.0,0.0,49,0.00,,---,0.00,VWS V13.01,2013-08-13 00:32:00,
2013-08-12 19:37:00,57.6,38.6,30.07,NNE,16,0.0,0.0,49,0.00,,---,0.00,VWS V13.01,2013-08-13 00:37:00,
2013-08-12 19:42:00,57.6,39.1,30.07,NNE,16,0.0,0.0,50,0.00,,---,0.00,VWS V13.01,2013-08-13 00:42:00,
2013-08-12 19:47:00,57.2,38.8,30.07,NNE,16,0.0,0.0,50,0.00,,---,0.00,VWS V13.01,2013-08-13 00:47:00,
2013-08-12 19:52:00,57.0,39.1,30.07,NNE,16,0.0,0.0,51,0.00,,---,0.00,VWS V13.01,2013-08-13 00:52:00,
2013-08-12 19:57:00,56.8,39.9,30.07,NNE,16,0.0,0.0,53,0.00,,---,0.00,VWS V13.01,2013-08-13 00:57:00,
2013-08-12 20:02:00,56.7,40.2,30.07,NNE,16,0.0,0.0,54,0.00,,---,0.00,VWS V13.01,2013-08-13 01:02:00,
2013-08-12 20:07:00,56.1,39.7,30.07,NNE,16,0.0,0.0,54,0.00,,---,0.00,VWS V13.01,2013-08-13 01:07:00,
2013-08-12 20:12:00,55.8,40.3,30.07,NNE,16,0.0,0.0,56,0.00,,---,0.00,VWS V13.01,2013-08-13 01:12:00,
2013-08-12 20:17:00,55.2,40.3,30.07,NNE,16,0.0,0.0,57,0.00,,---,0.00,VWS V13.01,2013-08-13 01:17:00,
2013-08-12 20:22:00,54.9,39.9,30.07,NNE,16,0.0,0.0,57,0.00,,---,0.00,VWS V13.01,2013-08-13 01:22:00,
2013-08-12 20:27:00,54.5,40.5,30.07,NNE,16,0.0,0.0,59,0.00,,---,0.00,VWS V13.01,2013-08-13 01:27:00,
2013-08-12 20:32:00,54.0,40.4,30.10,NNE,16,0.0,0.0,60,0.00,,---,0.00,VWS V13.01,2013-08-13 01:32:00,
2013-08-12 20:37:00,53.4,40.3,30.10,NNE,16,0.0,0.0,61,0.00,,---,0.00,VWS V13.01,2013-08-13 01:37:00,
2013-08-12 20:42:00,52.9,40.2,30.10,NNE,16,0.0,0.0,62,0.00,,---,0.00,VWS V13.01,2013-08-13 01:42:00,
2013-08-12 20:47:00,52.7,40.9,30.10,NNE,16,0.0,0.0,64,0.00,,---,0.00,VWS V13.01,2013-08-13 01:47:00,
2013-08-12 20:52:00,52.3,40.9,30.10,NNE,16,0.0,0.0,65,0.00,,---,0.00,VWS V13.01,2013-08-13 01:52:00,
2013-08-12 20:57:00,52.0,40.6,30.10,NNE,16,0.0,0.0,65,0.00,,---,0.00,VWS V13.01,2013-08-13 01:57:00,
2013-08-12 21:02:00,51.8,40.8,30.10,NNE,16,0.0,0.0,66,0.00,,---,0.00,VWS V13.01,2013-08-13 02:02:00,
2013-08-12 21:07:00,51.6,41.0,30.10,NNE,16,0.0,0.0,67,0.00,,---,0.00,VWS V13.01,2013-08-13 02:07:00,
2013-08-12 21:12:00,51.3,40.7,30.10,NNE,16,0.0,0.0,67,0.00,,---,0.00,VWS V13.01,2013-08-13 02:12:00,
2013-08-12 21:17:00,51.1,40.9,30.10,NNE,16,0.0,0.0,68,0.00,,---,0.00,VWS V13.01,2013-08-13 02:17:00,
2013-08-12 21:22:00,50.9,40.7,30.10,NNE,16,0.0,0.0,68,0.00,,---,0.00,VWS V13.01,2013-08-13 02:22:00,
2013-08-12 21:27:00,50.5,40.4,30.10,NNE,16,0.0,0.0,68,0.00,,---,0.00,VWS V13.01,2013-08-13 02:27:00,
2013-08-12 21:32:00,50.4,40.6,30.10,NNE,16,0.0,0.0,69,0.00,,---,0.00,VWS V13.01,2013-08-13 02:32:00,
2013-08-12 21:37:00,50.2,40.4,30.10,NNE,16,0.0,0.0,69,0.00,,---,0.00,VWS V13.01,2013-08-13 02:37:00,
2013-08-12 21:42:00,50.2,40.8,30.10,NNE,16,0.0,0.0,70,0.00,,---,0.00,VWS V13.01,2013-08-13 02:42:00,
2013-08-12 21:47:00,50.0,41.0,30.10,NNE,16,0.0,0.0,71,0.00,,---,0.00,VWS V13.01,2013-08-13 02:47:00,
2013-08-12 21:52:00,49.8,40.8,30.10,NNE,16,0.0,0.0,71,0.00,,---,0.00,VWS V13.01,2013-08-13 02:52:00,
2013-08-12 21:57:00,49.6,41.0,30.10,NNE,16,0.0,0.0,72,0.00,,---,0.00,VWS V13.01,2013-08-13 02:57:00,
2013-08-12 22:02:00,49.6,41.0,30.10,NNE,16,0.0,0.0,72,0.00,,---,0.00,VWS V13.01,2013-08-13 03:02:00,
2013-08-12 22:07:00,49.6,41.3,30.10,NNE,16,0.0,0.0,73,0.00,,---,0.00,VWS V13.01,2013-08-13 03:07:00,
2013-08-12 22:13:00,49.5,41.2,30.10,NNE,16,0.0,0.0,73,0.00,,---,0.00,VWS V13.01,2013-08-13 03:13:00,
2013-08-12 22:18:00,49.5,41.2,30.10,NNE,16,0.0,0.0,73,0.00,,---,0.00,VWS V13.01,2013-08-13 03:18:00,
2013-08-12 22:23:00,49.3,41.0,30.10,NNE,16,0.0,0.0,73,0.00,,---,0.00,VWS V13.01,2013-08-13 03:23:00,
2013-08-12 22:28:00,49.1,40.8,30.10,NNE,16,0.0,0.0,73,0.00,,---,0.00,VWS V13.01,2013-08-13 03:28:00,
2013-08-12 22:33:00,49.1,41.2,30.10,NNE,16,0.0,0.0,74,0.00,,---,0.00,VWS V13.01,2013-08-13 03:33:00,
2013-08-12 22:38:00,48.9,41.0,30.10,NNE,16,0.0,0.0,74,0.00,,---,0.00,VWS V13.01,2013-08-13 03:38:00,
2013-08-12 22:43:00,48.9,41.0,30.13,NNE,16,0.0,0.0,74,0.00,,---,0.00,VWS V13.01,2013-08-13 03:43:00,
2013-08-12 22:48:00,48.7,40.8,30.13,NNE,16,0.0,0.0,74,0.00,,---,0.00,VWS V13.01,2013-08-13 03:48:00,
2013-08-12 22:53:00,48.7,40.8,30.13,NNE,16,0.0,0.0,74,0.00,,---,0.00,VWS V13.01,2013-08-13 03:53:00,
2013-08-12 22:58:00,48.7,41.2,30.13,NNE,16,0.0,0.0,75,0.00,,---,0.00,VWS V13.01,2013-08-13 03:58:00,
2013-08-12 23:01:00,48.7,41.2,30.13,NNE,16,0.0,0.0,75,0.00,,---,0.00,VWS V13.01,2013-08-13 04:01:00,
2013-08-12 23:02:00,48.7,41.2,30.13,NNE,16,0.0,0.0,75,0.00,,---,0.00,VWS V13.01,2013-08-13 04:02:00,
2013-08-12 23:07:00,48.7,41.2,30.13,NNE,16,0.0,0.0,75,0.00,,---,0.00,VWS V13.01,2013-08-13 04:07:00,
2013-08-12 23:12:00,48.7,41.2,30.13,NNE,16,0.0,0.0,75,0.00,,---,0.00,VWS V13.01,2013-08-13 04:12:00,
2013-08-12 23:17:00,48.6,41.0,30.13,NNE,16,0.0,0.0,75,0.00,,---,0.00,VWS V13.01,2013-08-13 04:17:00,
2013-08-12 23:22:00,48.6,40.7,30.13,NNE,16,0.0,0.0,74,0.00,,---,0.00,VWS V13.01,2013-08-13 04:22:00,
2013-08-12 23:27:00,48.4,40.5,30.13,NNE,16,0.0,0.0,74,0.00,,---,0.00,VWS V13.01,2013-08-13 04:27:00,
2013-08-12 23:32:00,48.4,40.5,30.13,NNE,16,0.0,0.0,74,0.00,,---,0.00,VWS V13.01,2013-08-13 04:32:00,
2013-08-12 23:37:00,48.4,40.5,30.13,NNE,16,0.0,0.0,74,0.00,,---,0.00,VWS V13.01,2013-08-13 04:37:00,
2013-08-12 23:42:00,48.2,40.3,30.13,NNE,16,0.0,0.0,74,0.00,,---,0.00,VWS V13.01,2013-08-13 04:42:00,
2013-08-12 23:47:00,48.2,40.3,30.13,NNE,16,0.0,0.0,74,0.00,,---,0.00,VWS V13.01,2013-08-13 04:47:00,
2013-08-12 23:52:00,48.4,40.5,30.13,NNE,16,0.0,0.0,74,0.00,,---,0.00,VWS V13.01,2013-08-13 04:52:00,
2013-08-12 23:58:00,48.6,40.7,30.13,NNE,16,0.0,0.0,74,0.00,,---,0.00,VWS V13.01,2013-08-13 04:58:00,